sensor_id;sensor_type;location;lat;lon;timestamp;temperature;humidity
35559;DHT22;21661;50.794;-1.066;2023-03-14T00:02:10;10.70;99.90
35559;DHT22;21661;50.794;-1.066;2023-03-14T00:04:36;10.60;99.90
35559;DHT22;21661;50.794;-1.066;2023-03-14T00:07:02;10.60;99.90
35559;DHT22;21661;50.794;-1.066;2023-03-14T00:09:27;10.60;99.90
35559;DHT22;21661;50.794;-1.066;2023-03-14T00:11:55;10.50;99.90
35559;DHT22;21661;50.794;-1.066;2023-03-14T00:14:20;10.50;99.90
35559;DHT22;21661;50.794;-1.066;2023-03-14T00:16:46;10.50;99.90
35559;DHT22;21661;50.794;-1.066;2023-03-14T00:19:12;10.50;99.90
35559;DHT22;21661;50.794;-1.066;2023-03-14T00:21:37;10.50;99.90
35559;DHT22;21661;50.794;-1.066;2023-03-14T00:24:03;10.40;99.90
35559;DHT22;21661;50.794;-1.066;2023-03-14T00:26:28;10.40;99.90
35559;DHT22;21661;50.794;-1.066;2023-03-14T00:28:55;10.40;99.90
35559;DHT22;21661;50.794;-1.066;2023-03-14T00:31:21;10.40;99.90
35559;DHT22;21661;50.794;-1.066;2023-03-14T00:33:47;10.40;99.90
35559;DHT22;21661;50.794;-1.066;2023-03-14T00:36:16;10.40;99.90
35559;DHT22;21661;50.794;-1.066;2023-03-14T00:38:44;10.40;99.90
35559;DHT22;21661;50.794;-1.066;2023-03-14T00:41:16;10.40;99.90
35559;DHT22;21661;50.794;-1.066;2023-03-14T00:43:42;10.40;99.90
35559;DHT22;21661;50.794;-1.066;2023-03-14T00:46:08;10.40;99.90
35559;DHT22;21661;50.794;-1.066;2023-03-14T00:48:34;10.30;99.90
35559;DHT22;21661;50.794;-1.066;2023-03-14T00:51:00;10.40;99.90
35559;DHT22;21661;50.794;-1.066;2023-03-14T00:53:26;10.40;99.90
35559;DHT22;21661;50.794;-1.066;2023-03-14T00:55:52;10.40;99.90
35559;DHT22;21661;50.794;-1.066;2023-03-14T00:58:18;10.40;99.90
35559;DHT22;21661;50.794;-1.066;2023-03-14T01:00:44;10.50;99.90
35559;DHT22;21661;50.794;-1.066;2023-03-14T01:03:11;10.50;99.90
35559;DHT22;21661;50.794;-1.066;2023-03-14T01:05:37;10.50;99.90
35559;DHT22;21661;50.794;-1.066;2023-03-14T01:08:04;10.60;99.90
35559;DHT22;21661;50.794;-1.066;2023-03-14T01:10:30;10.60;99.90
35559;DHT22;21661;50.794;-1.066;2023-03-14T01:12:56;10.60;99.90
35559;DHT22;21661;50.794;-1.066;2023-03-14T01:15:22;10.40;99.90
35559;DHT22;21661;50.794;-1.066;2023-03-14T01:17:47;10.40;99.90
35559;DHT22;21661;50.794;-1.066;2023-03-14T01:20:14;10.20;99.90
35559;DHT22;21661;50.794;-1.066;2023-03-14T01:22:41;10.20;99.90
35559;DHT22;21661;50.794;-1.066;2023-03-14T01:25:10;10.00;99.90
35559;DHT22;21661;50.794;-1.066;2023-03-14T01:27:36;10.00;99.90
35559;DHT22;21661;50.794;-1.066;2023-03-14T01:30:03;9.90;99.90
35559;DHT22;21661;50.794;-1.066;2023-03-14T01:32:29;9.90;99.90
35559;DHT22;21661;50.794;-1.066;2023-03-14T01:34:55;9.70;99.90
35559;DHT22;21661;50.794;-1.066;2023-03-14T01:37:21;9.60;99.90
35559;DHT22;21661;50.794;-1.066;2023-03-14T01:39:47;9.60;99.90
35559;DHT22;21661;50.794;-1.066;2023-03-14T01:42:13;9.50;99.90
35559;DHT22;21661;50.794;-1.066;2023-03-14T01:47:16;9.40;99.90
35559;DHT22;21661;50.794;-1.066;2023-03-14T01:49:43;9.40;99.90
35559;DHT22;21661;50.794;-1.066;2023-03-14T01:54:53;9.40;99.90
35559;DHT22;21661;50.794;-1.066;2023-03-14T02:00:32;9.30;99.90
35559;DHT22;21661;50.794;-1.066;2023-03-14T02:02:43;9.20;99.90
35559;DHT22;21661;50.794;-1.066;2023-03-14T02:05:10;9.20;99.90
35559;DHT22;21661;50.794;-1.066;2023-03-14T02:07:55;8.80;99.90
35559;DHT22;21661;50.794;-1.066;2023-03-14T02:10:24;8.90;99.90
35559;DHT22;21661;50.794;-1.066;2023-03-14T02:12:52;8.80;99.90
35559;DHT22;21661;50.794;-1.066;2023-03-14T02:15:21;8.80;99.90
35559;DHT22;21661;50.794;-1.066;2023-03-14T02:17:47;8.80;99.90
35559;DHT22;21661;50.794;-1.066;2023-03-14T02:20:27;8.80;99.90
35559;DHT22;21661;50.794;-1.066;2023-03-14T02:22:54;8.70;99.90
35559;DHT22;21661;50.794;-1.066;2023-03-14T02:28:09;8.80;99.90
35559;DHT22;21661;50.794;-1.066;2023-03-14T02:30:34;8.80;99.90
35559;DHT22;21661;50.794;-1.066;2023-03-14T02:33:09;8.80;99.90
35559;DHT22;21661;50.794;-1.066;2023-03-14T02:35:57;8.80;99.90
35559;DHT22;21661;50.794;-1.066;2023-03-14T02:40:59;8.60;99.90
35559;DHT22;21661;50.794;-1.066;2023-03-14T02:43:24;8.50;99.90
35559;DHT22;21661;50.794;-1.066;2023-03-14T02:45:52;8.50;99.90
35559;DHT22;21661;50.794;-1.066;2023-03-14T02:48:26;8.40;99.90
35559;DHT22;21661;50.794;-1.066;2023-03-14T02:50:57;8.40;99.90
35559;DHT22;21661;50.794;-1.066;2023-03-14T02:53:27;8.30;99.90
35559;DHT22;21661;50.794;-1.066;2023-03-14T02:55:52;8.30;99.90
35559;DHT22;21661;50.794;-1.066;2023-03-14T02:58:19;8.20;99.90
35559;DHT22;21661;50.794;-1.066;2023-03-14T03:00:45;8.10;99.90
35559;DHT22;21661;50.794;-1.066;2023-03-14T03:03:11;8.10;99.90
35559;DHT22;21661;50.794;-1.066;2023-03-14T03:05:37;8.00;99.90
35559;DHT22;21661;50.794;-1.066;2023-03-14T03:08:03;8.00;99.90
35559;DHT22;21661;50.794;-1.066;2023-03-14T03:10:29;8.00;99.90
35559;DHT22;21661;50.794;-1.066;2023-03-14T03:12:55;7.90;99.90
35559;DHT22;21661;50.794;-1.066;2023-03-14T03:15:22;7.80;99.90
35559;DHT22;21661;50.794;-1.066;2023-03-14T03:17:47;7.80;99.90
35559;DHT22;21661;50.794;-1.066;2023-03-14T03:20:13;7.70;99.90
35559;DHT22;21661;50.794;-1.066;2023-03-14T03:22:39;7.70;99.90
35559;DHT22;21661;50.794;-1.066;2023-03-14T03:25:06;7.70;99.90
35559;DHT22;21661;50.794;-1.066;2023-03-14T03:27:36;7.60;99.90
35559;DHT22;21661;50.794;-1.066;2023-03-14T03:30:04;7.60;99.90
35559;DHT22;21661;50.794;-1.066;2023-03-14T03:32:30;7.60;99.90
35559;DHT22;21661;50.794;-1.066;2023-03-14T03:34:56;7.50;99.90
35559;DHT22;21661;50.794;-1.066;2023-03-14T03:37:22;7.50;99.90
35559;DHT22;21661;50.794;-1.066;2023-03-14T03:39:50;7.50;99.90
35559;DHT22;21661;50.794;-1.066;2023-03-14T03:42:16;7.50;99.90
35559;DHT22;21661;50.794;-1.066;2023-03-14T03:44:41;7.50;99.90
35559;DHT22;21661;50.794;-1.066;2023-03-14T03:47:07;7.40;99.90
35559;DHT22;21661;50.794;-1.066;2023-03-14T03:49:32;7.40;99.90
35559;DHT22;21661;50.794;-1.066;2023-03-14T03:51:59;7.40;99.90
35559;DHT22;21661;50.794;-1.066;2023-03-14T03:54:24;7.40;99.90
35559;DHT22;21661;50.794;-1.066;2023-03-14T03:56:50;7.40;99.90
35559;DHT22;21661;50.794;-1.066;2023-03-14T03:59:16;7.30;99.90
35559;DHT22;21661;50.794;-1.066;2023-03-14T04:01:41;7.30;99.90
35559;DHT22;21661;50.794;-1.066;2023-03-14T04:04:07;7.20;99.90
35559;DHT22;21661;50.794;-1.066;2023-03-14T04:06:32;7.20;99.90
35559;DHT22;21661;50.794;-1.066;2023-03-14T04:08:58;7.20;99.90
35559;DHT22;21661;50.794;-1.066;2023-03-14T04:11:24;7.20;99.90
35559;DHT22;21661;50.794;-1.066;2023-03-14T04:13:49;7.10;99.90
35559;DHT22;21661;50.794;-1.066;2023-03-14T04:16:18;7.10;99.90
35559;DHT22;21661;50.794;-1.066;2023-03-14T04:18:44;7.10;99.90
35559;DHT22;21661;50.794;-1.066;2023-03-14T04:21:10;7.00;99.90
35559;DHT22;21661;50.794;-1.066;2023-03-14T04:23:36;7.00;99.90
35559;DHT22;21661;50.794;-1.066;2023-03-14T04:26:02;7.00;99.90
35559;DHT22;21661;50.794;-1.066;2023-03-14T04:28:28;7.00;99.90
35559;DHT22;21661;50.794;-1.066;2023-03-14T04:30:54;7.00;99.90
35559;DHT22;21661;50.794;-1.066;2023-03-14T04:33:19;7.00;99.90
35559;DHT22;21661;50.794;-1.066;2023-03-14T04:35:45;6.90;99.90
35559;DHT22;21661;50.794;-1.066;2023-03-14T04:38:12;6.90;99.90
35559;DHT22;21661;50.794;-1.066;2023-03-14T04:40:38;6.90;99.90
35559;DHT22;21661;50.794;-1.066;2023-03-14T04:43:04;6.90;99.90
35559;DHT22;21661;50.794;-1.066;2023-03-14T04:45:30;6.90;99.90
35559;DHT22;21661;50.794;-1.066;2023-03-14T04:47:55;6.90;99.90
35559;DHT22;21661;50.794;-1.066;2023-03-14T04:50:21;6.90;99.90
35559;DHT22;21661;50.794;-1.066;2023-03-14T04:52:47;6.90;99.90
35559;DHT22;21661;50.794;-1.066;2023-03-14T04:55:12;6.90;99.90
35559;DHT22;21661;50.794;-1.066;2023-03-14T04:57:38;6.90;99.90
35559;DHT22;21661;50.794;-1.066;2023-03-14T05:00:04;7.00;99.90
35559;DHT22;21661;50.794;-1.066;2023-03-14T05:02:33;6.90;99.90
35559;DHT22;21661;50.794;-1.066;2023-03-14T05:04:59;6.90;99.90
35559;DHT22;21661;50.794;-1.066;2023-03-14T05:07:25;6.90;99.90
35559;DHT22;21661;50.794;-1.066;2023-03-14T05:09:50;6.90;99.90
35559;DHT22;21661;50.794;-1.066;2023-03-14T05:12:16;6.90;99.90
35559;DHT22;21661;50.794;-1.066;2023-03-14T05:14:41;6.90;99.90
35559;DHT22;21661;50.794;-1.066;2023-03-14T05:17:07;6.90;99.90
35559;DHT22;21661;50.794;-1.066;2023-03-14T05:19:33;7.00;99.90
35559;DHT22;21661;50.794;-1.066;2023-03-14T05:21:58;7.00;99.90
35559;DHT22;21661;50.794;-1.066;2023-03-14T05:24:24;7.00;99.90
35559;DHT22;21661;50.794;-1.066;2023-03-14T05:26:50;7.00;99.90
35559;DHT22;21661;50.794;-1.066;2023-03-14T05:29:15;7.00;99.90
35559;DHT22;21661;50.794;-1.066;2023-03-14T05:31:41;7.10;99.90
35559;DHT22;21661;50.794;-1.066;2023-03-14T05:34:06;7.10;99.90
35559;DHT22;21661;50.794;-1.066;2023-03-14T05:36:32;7.10;99.90
35559;DHT22;21661;50.794;-1.066;2023-03-14T05:38:57;7.10;99.90
35559;DHT22;21661;50.794;-1.066;2023-03-14T05:41:23;7.20;99.90
35559;DHT22;21661;50.794;-1.066;2023-03-14T05:43:48;7.20;99.90
35559;DHT22;21661;50.794;-1.066;2023-03-14T05:46:14;7.20;99.90
35559;DHT22;21661;50.794;-1.066;2023-03-14T05:48:40;7.10;99.90
35559;DHT22;21661;50.794;-1.066;2023-03-14T05:51:06;7.10;99.90
35559;DHT22;21661;50.794;-1.066;2023-03-14T05:53:31;7.10;99.90
35559;DHT22;21661;50.794;-1.066;2023-03-14T05:55:57;7.00;99.90
35559;DHT22;21661;50.794;-1.066;2023-03-14T05:58:23;7.00;99.90
35559;DHT22;21661;50.794;-1.066;2023-03-14T06:00:49;7.00;99.90
35559;DHT22;21661;50.794;-1.066;2023-03-14T06:03:15;7.00;99.90
35559;DHT22;21661;50.794;-1.066;2023-03-14T06:05:40;7.00;99.90
35559;DHT22;21661;50.794;-1.066;2023-03-14T06:08:06;7.00;99.90
35559;DHT22;21661;50.794;-1.066;2023-03-14T06:10:32;7.00;99.90
35559;DHT22;21661;50.794;-1.066;2023-03-14T06:12:58;7.00;99.90
35559;DHT22;21661;50.794;-1.066;2023-03-14T06:15:23;7.00;99.90
35559;DHT22;21661;50.794;-1.066;2023-03-14T06:17:49;7.00;99.90
35559;DHT22;21661;50.794;-1.066;2023-03-14T06:20:15;7.00;99.90
35559;DHT22;21661;50.794;-1.066;2023-03-14T06:22:40;7.00;99.90
35559;DHT22;21661;50.794;-1.066;2023-03-14T06:25:07;7.00;99.90
35559;DHT22;21661;50.794;-1.066;2023-03-14T06:27:33;6.90;99.90
35559;DHT22;21661;50.794;-1.066;2023-03-14T06:29:59;6.90;99.90
35559;DHT22;21661;50.794;-1.066;2023-03-14T06:32:25;6.90;99.90
35559;DHT22;21661;50.794;-1.066;2023-03-14T06:34:50;7.00;99.90
35559;DHT22;21661;50.794;-1.066;2023-03-14T06:37:19;6.90;99.90
35559;DHT22;21661;50.794;-1.066;2023-03-14T06:39:45;6.90;99.90
35559;DHT22;21661;50.794;-1.066;2023-03-14T06:42:10;6.90;99.90
35559;DHT22;21661;50.794;-1.066;2023-03-14T06:44:36;6.80;99.90
35559;DHT22;21661;50.794;-1.066;2023-03-14T06:47:02;6.80;99.90
35559;DHT22;21661;50.794;-1.066;2023-03-14T06:49:28;6.80;99.90
35559;DHT22;21661;50.794;-1.066;2023-03-14T06:51:53;6.80;99.90
35559;DHT22;21661;50.794;-1.066;2023-03-14T06:54:19;6.80;99.90
35559;DHT22;21661;50.794;-1.066;2023-03-14T06:56:44;6.70;99.90
35559;DHT22;21661;50.794;-1.066;2023-03-14T06:59:10;6.70;99.90
35559;DHT22;21661;50.794;-1.066;2023-03-14T07:01:36;6.70;99.90
35559;DHT22;21661;50.794;-1.066;2023-03-14T07:04:02;6.70;99.90
35559;DHT22;21661;50.794;-1.066;2023-03-14T07:06:28;6.70;99.90
35559;DHT22;21661;50.794;-1.066;2023-03-14T07:08:55;6.70;99.90
35559;DHT22;21661;50.794;-1.066;2023-03-14T07:11:21;6.70;99.90
35559;DHT22;21661;50.794;-1.066;2023-03-14T07:13:47;6.60;99.90
35559;DHT22;21661;50.794;-1.066;2023-03-14T07:16:13;6.70;99.90
35559;DHT22;21661;50.794;-1.066;2023-03-14T07:18:38;6.70;99.90
35559;DHT22;21661;50.794;-1.066;2023-03-14T07:21:06;6.70;99.90
35559;DHT22;21661;50.794;-1.066;2023-03-14T07:23:32;6.70;99.90
35559;DHT22;21661;50.794;-1.066;2023-03-14T07:25:58;6.80;99.90
35559;DHT22;21661;50.794;-1.066;2023-03-14T07:28:23;6.80;99.90
35559;DHT22;21661;50.794;-1.066;2023-03-14T07:30:49;6.80;99.90
35559;DHT22;21661;50.794;-1.066;2023-03-14T07:33:15;6.90;99.90
35559;DHT22;21661;50.794;-1.066;2023-03-14T07:35:40;6.90;99.90
35559;DHT22;21661;50.794;-1.066;2023-03-14T07:38:06;6.90;99.90
35559;DHT22;21661;50.794;-1.066;2023-03-14T07:40:32;6.90;99.90
35559;DHT22;21661;50.794;-1.066;2023-03-14T07:42:57;6.90;99.90
35559;DHT22;21661;50.794;-1.066;2023-03-14T07:45:23;6.90;99.90
35559;DHT22;21661;50.794;-1.066;2023-03-14T07:47:49;6.80;99.90
35559;DHT22;21661;50.794;-1.066;2023-03-14T07:50:15;6.80;99.90
35559;DHT22;21661;50.794;-1.066;2023-03-14T07:52:41;6.80;99.90
35559;DHT22;21661;50.794;-1.066;2023-03-14T07:55:06;6.80;99.90
35559;DHT22;21661;50.794;-1.066;2023-03-14T07:57:32;6.80;99.90
35559;DHT22;21661;50.794;-1.066;2023-03-14T07:59:58;6.90;99.90
35559;DHT22;21661;50.794;-1.066;2023-03-14T08:02:23;6.90;99.90
35559;DHT22;21661;50.794;-1.066;2023-03-14T08:04:50;6.90;99.90
35559;DHT22;21661;50.794;-1.066;2023-03-14T08:07:15;6.90;99.90
35559;DHT22;21661;50.794;-1.066;2023-03-14T08:09:41;7.00;99.90
35559;DHT22;21661;50.794;-1.066;2023-03-14T08:12:07;7.00;99.90
35559;DHT22;21661;50.794;-1.066;2023-03-14T08:14:33;7.00;99.90
35559;DHT22;21661;50.794;-1.066;2023-03-14T08:16:58;7.00;99.90
35559;DHT22;21661;50.794;-1.066;2023-03-14T08:19:24;7.00;99.90
35559;DHT22;21661;50.794;-1.066;2023-03-14T08:21:50;7.10;99.90
35559;DHT22;21661;50.794;-1.066;2023-03-14T08:24:16;7.10;99.90
35559;DHT22;21661;50.794;-1.066;2023-03-14T08:26:41;7.20;99.90
35559;DHT22;21661;50.794;-1.066;2023-03-14T08:29:07;7.20;99.90
35559;DHT22;21661;50.794;-1.066;2023-03-14T08:31:34;7.30;99.90
35559;DHT22;21661;50.794;-1.066;2023-03-14T08:34:00;7.40;99.90
35559;DHT22;21661;50.794;-1.066;2023-03-14T08:36:27;7.40;99.90
35559;DHT22;21661;50.794;-1.066;2023-03-14T08:38:52;7.40;99.90
35559;DHT22;21661;50.794;-1.066;2023-03-14T08:41:18;7.50;99.90
35559;DHT22;21661;50.794;-1.066;2023-03-14T08:43:44;7.50;99.90
35559;DHT22;21661;50.794;-1.066;2023-03-14T08:46:09;7.50;99.90
35559;DHT22;21661;50.794;-1.066;2023-03-14T08:48:35;7.60;99.90
35559;DHT22;21661;50.794;-1.066;2023-03-14T08:51:12;7.70;99.90
35559;DHT22;21661;50.794;-1.066;2023-03-14T08:53:38;7.80;99.90
35559;DHT22;21661;50.794;-1.066;2023-03-14T08:56:04;7.90;99.90
35559;DHT22;21661;50.794;-1.066;2023-03-14T08:58:31;7.90;99.90
35559;DHT22;21661;50.794;-1.066;2023-03-14T09:00:57;8.00;99.90
35559;DHT22;21661;50.794;-1.066;2023-03-14T09:03:23;8.10;99.90
35559;DHT22;21661;50.794;-1.066;2023-03-14T09:05:50;8.00;99.90
35559;DHT22;21661;50.794;-1.066;2023-03-14T09:08:16;8.10;99.90
35559;DHT22;21661;50.794;-1.066;2023-03-14T09:10:41;8.00;99.90
35559;DHT22;21661;50.794;-1.066;2023-03-14T09:13:07;7.90;99.90
35559;DHT22;21661;50.794;-1.066;2023-03-14T09:15:33;7.80;99.90
35559;DHT22;21661;50.794;-1.066;2023-03-14T09:17:59;7.80;99.90
35559;DHT22;21661;50.794;-1.066;2023-03-14T09:20:24;7.70;99.90
35559;DHT22;21661;50.794;-1.066;2023-03-14T09:22:50;7.70;99.90
35559;DHT22;21661;50.794;-1.066;2023-03-14T09:25:16;7.70;99.90
35559;DHT22;21661;50.794;-1.066;2023-03-14T09:27:41;7.80;99.90
35559;DHT22;21661;50.794;-1.066;2023-03-14T09:30:09;7.80;99.90
35559;DHT22;21661;50.794;-1.066;2023-03-14T09:32:34;7.80;99.90
35559;DHT22;21661;50.794;-1.066;2023-03-14T09:35:00;7.80;99.90
35559;DHT22;21661;50.794;-1.066;2023-03-14T09:37:26;7.80;99.90
35559;DHT22;21661;50.794;-1.066;2023-03-14T09:39:51;7.80;99.90
35559;DHT22;21661;50.794;-1.066;2023-03-14T09:42:21;7.90;99.90
35559;DHT22;21661;50.794;-1.066;2023-03-14T09:44:55;8.00;99.90
35559;DHT22;21661;50.794;-1.066;2023-03-14T09:47:23;8.00;99.90
35559;DHT22;21661;50.794;-1.066;2023-03-14T09:49:49;8.10;99.90
35559;DHT22;21661;50.794;-1.066;2023-03-14T09:52:18;8.20;99.90
35559;DHT22;21661;50.794;-1.066;2023-03-14T09:54:50;8.30;99.90
35559;DHT22;21661;50.794;-1.066;2023-03-14T09:57:19;8.30;99.90
35559;DHT22;21661;50.794;-1.066;2023-03-14T09:59:47;8.20;99.90
35559;DHT22;21661;50.794;-1.066;2023-03-14T10:02:19;8.20;99.90
35559;DHT22;21661;50.794;-1.066;2023-03-14T10:04:46;8.20;99.90
35559;DHT22;21661;50.794;-1.066;2023-03-14T10:07:50;8.10;99.90
35559;DHT22;21661;50.794;-1.066;2023-03-14T10:10:20;7.70;99.90
35559;DHT22;21661;50.794;-1.066;2023-03-14T10:12:49;7.40;99.90
35559;DHT22;21661;50.794;-1.066;2023-03-14T10:15:29;7.30;99.90
35559;DHT22;21661;50.794;-1.066;2023-03-14T10:17:55;7.20;99.90
35559;DHT22;21661;50.794;-1.066;2023-03-14T10:23:26;7.20;99.90
35559;DHT22;21661;50.794;-1.066;2023-03-14T10:26:04;7.30;99.90
35559;DHT22;21661;50.794;-1.066;2023-03-14T10:28:52;7.50;99.90
35559;DHT22;21661;50.794;-1.066;2023-03-14T10:31:18;7.70;99.90
35559;DHT22;21661;50.794;-1.066;2023-03-14T10:34:09;7.90;99.90
35559;DHT22;21661;50.794;-1.066;2023-03-14T10:36:40;8.00;99.90
35559;DHT22;21661;50.794;-1.066;2023-03-14T10:39:26;8.00;99.90
35559;DHT22;21661;50.794;-1.066;2023-03-14T10:41:54;8.00;99.90
35559;DHT22;21661;50.794;-1.066;2023-03-14T10:44:25;8.00;99.90
35559;DHT22;21661;50.794;-1.066;2023-03-14T10:47:00;7.90;99.90
35559;DHT22;21661;50.794;-1.066;2023-03-14T10:49:36;8.10;99.90
35559;DHT22;21661;50.794;-1.066;2023-03-14T10:54:34;8.50;99.90
35559;DHT22;21661;50.794;-1.066;2023-03-14T10:57:01;8.50;99.90
35559;DHT22;21661;50.794;-1.066;2023-03-14T10:59:34;8.30;99.90
35559;DHT22;21661;50.794;-1.066;2023-03-14T11:07:38;8.40;99.90
35559;DHT22;21661;50.794;-1.066;2023-03-14T11:10:29;8.30;99.90
35559;DHT22;21661;50.794;-1.066;2023-03-14T11:13:16;8.40;99.90
35559;DHT22;21661;50.794;-1.066;2023-03-14T11:16:06;8.40;99.90
35559;DHT22;21661;50.794;-1.066;2023-03-14T11:27:06;8.40;99.90
35559;DHT22;21661;50.794;-1.066;2023-03-14T11:32:02;8.50;99.90
35559;DHT22;21661;50.794;-1.066;2023-03-14T11:34:39;8.60;99.90
35559;DHT22;21661;50.794;-1.066;2023-03-14T11:37:19;8.60;99.90
35559;DHT22;21661;50.794;-1.066;2023-03-14T11:39:56;8.70;99.90
35559;DHT22;21661;50.794;-1.066;2023-03-14T11:42:23;8.80;99.90
35559;DHT22;21661;50.794;-1.066;2023-03-14T11:44:50;8.80;99.90
35559;DHT22;21661;50.794;-1.066;2023-03-14T11:47:17;8.80;99.90
35559;DHT22;21661;50.794;-1.066;2023-03-14T11:49:56;8.80;99.90
35559;DHT22;21661;50.794;-1.066;2023-03-14T11:52:28;8.80;99.90
35559;DHT22;21661;50.794;-1.066;2023-03-14T11:55:34;8.60;99.90
35559;DHT22;21661;50.794;-1.066;2023-03-14T11:58:19;8.50;99.90
35559;DHT22;21661;50.794;-1.066;2023-03-14T12:00:47;8.50;99.90
35559;DHT22;21661;50.794;-1.066;2023-03-14T12:03:34;8.50;99.90
35559;DHT22;21661;50.794;-1.066;2023-03-14T12:06:32;8.60;99.90
35559;DHT22;21661;50.794;-1.066;2023-03-14T12:09:04;8.70;99.90
35559;DHT22;21661;50.794;-1.066;2023-03-14T12:11:56;8.80;99.90
35559;DHT22;21661;50.794;-1.066;2023-03-14T12:14:33;8.80;99.90
35559;DHT22;21661;50.794;-1.066;2023-03-14T12:17:13;8.80;99.90
35559;DHT22;21661;50.794;-1.066;2023-03-14T12:19:43;8.90;99.90
35559;DHT22;21661;50.794;-1.066;2023-03-14T12:24:49;9.00;99.90
35559;DHT22;21661;50.794;-1.066;2023-03-14T12:30:30;9.60;99.90
35559;DHT22;21661;50.794;-1.066;2023-03-14T12:35:39;9.80;99.90
35559;DHT22;21661;50.794;-1.066;2023-03-14T12:43:31;9.70;99.90
35559;DHT22;21661;50.794;-1.066;2023-03-14T12:48:44;9.80;99.90
35559;DHT22;21661;50.794;-1.066;2023-03-14T13:01:54;9.90;99.90
35559;DHT22;21661;50.794;-1.066;2023-03-14T13:05:09;9.90;99.90
35559;DHT22;21661;50.794;-1.066;2023-03-14T13:10:40;10.10;99.90
35559;DHT22;21661;50.794;-1.066;2023-03-14T13:13:24;10.00;99.90
35559;DHT22;21661;50.794;-1.066;2023-03-14T13:16:00;9.80;99.90
35559;DHT22;21661;50.794;-1.066;2023-03-14T13:18:49;9.80;99.90
35559;DHT22;21661;50.794;-1.066;2023-03-14T13:21:22;9.90;99.90
35559;DHT22;21661;50.794;-1.066;2023-03-14T13:24:00;10.00;99.90
35559;DHT22;21661;50.794;-1.066;2023-03-14T13:26:36;10.00;99.90
35559;DHT22;21661;50.794;-1.066;2023-03-14T13:31:35;9.90;99.90
35559;DHT22;21661;50.794;-1.066;2023-03-14T13:34:04;9.90;99.90
35559;DHT22;21661;50.794;-1.066;2023-03-14T13:36:30;9.90;99.90
35559;DHT22;21661;50.794;-1.066;2023-03-14T13:38:58;9.90;99.90
35559;DHT22;21661;50.794;-1.066;2023-03-14T13:41:25;10.00;99.90
35559;DHT22;21661;50.794;-1.066;2023-03-14T13:43:51;9.90;99.90
35559;DHT22;21661;50.794;-1.066;2023-03-14T13:46:22;10.10;99.90
35559;DHT22;21661;50.794;-1.066;2023-03-14T13:48:50;10.10;99.90
35559;DHT22;21661;50.794;-1.066;2023-03-14T13:51:18;10.20;99.90
35559;DHT22;21661;50.794;-1.066;2023-03-14T13:53:51;10.20;99.90
35559;DHT22;21661;50.794;-1.066;2023-03-14T13:56:26;10.30;99.90
35559;DHT22;21661;50.794;-1.066;2023-03-14T13:58:52;10.30;99.90
35559;DHT22;21661;50.794;-1.066;2023-03-14T14:01:25;10.40;99.90
35559;DHT22;21661;50.794;-1.066;2023-03-14T14:03:55;10.30;99.90
35559;DHT22;21661;50.794;-1.066;2023-03-14T14:06:49;10.30;99.90
35559;DHT22;21661;50.794;-1.066;2023-03-14T14:09:20;10.30;99.90
35559;DHT22;21661;50.794;-1.066;2023-03-14T14:14:47;10.40;99.90
35559;DHT22;21661;50.794;-1.066;2023-03-14T14:17:18;10.50;99.90
35559;DHT22;21661;50.794;-1.066;2023-03-14T14:19:45;10.50;99.90
35559;DHT22;21661;50.794;-1.066;2023-03-14T14:22:11;10.50;99.90
35559;DHT22;21661;50.794;-1.066;2023-03-14T14:24:38;10.60;99.90
35559;DHT22;21661;50.794;-1.066;2023-03-14T14:27:15;10.60;99.90
35559;DHT22;21661;50.794;-1.066;2023-03-14T14:29:42;10.60;99.90
35559;DHT22;21661;50.794;-1.066;2023-03-14T14:34:55;10.60;99.90
35559;DHT22;21661;50.794;-1.066;2023-03-14T14:37:32;10.50;99.90
35559;DHT22;21661;50.794;-1.066;2023-03-14T14:40:05;10.30;99.90
35559;DHT22;21661;50.794;-1.066;2023-03-14T14:42:32;10.20;99.90
35559;DHT22;21661;50.794;-1.066;2023-03-14T14:44:58;10.20;99.90
35559;DHT22;21661;50.794;-1.066;2023-03-14T14:47:26;10.10;99.90
35559;DHT22;21661;50.794;-1.066;2023-03-14T14:49:55;10.10;99.90
35559;DHT22;21661;50.794;-1.066;2023-03-14T14:52:40;10.10;99.90
35559;DHT22;21661;50.794;-1.066;2023-03-14T14:55:17;10.10;99.90
35559;DHT22;21661;50.794;-1.066;2023-03-14T14:57:50;10.20;99.90
35559;DHT22;21661;50.794;-1.066;2023-03-14T15:00:21;10.40;99.90
35559;DHT22;21661;50.794;-1.066;2023-03-14T15:02:50;10.60;99.90
35559;DHT22;21661;50.794;-1.066;2023-03-14T15:05:20;10.70;99.90
35559;DHT22;21661;50.794;-1.066;2023-03-14T15:07:46;10.80;99.90
35559;DHT22;21661;50.794;-1.066;2023-03-14T15:10:15;10.90;99.90
35559;DHT22;21661;50.794;-1.066;2023-03-14T15:12:41;11.00;99.90
35559;DHT22;21661;50.794;-1.066;2023-03-14T15:15:07;11.10;99.90
35559;DHT22;21661;50.794;-1.066;2023-03-14T15:17:33;11.00;99.90
35559;DHT22;21661;50.794;-1.066;2023-03-14T15:19:58;10.90;99.90
35559;DHT22;21661;50.794;-1.066;2023-03-14T15:22:24;10.90;99.90
35559;DHT22;21661;50.794;-1.066;2023-03-14T15:24:50;10.90;99.90
35559;DHT22;21661;50.794;-1.066;2023-03-14T15:27:17;10.80;99.90
35559;DHT22;21661;50.794;-1.066;2023-03-14T15:29:43;10.70;99.90
35559;DHT22;21661;50.794;-1.066;2023-03-14T15:32:11;10.80;99.90
35559;DHT22;21661;50.794;-1.066;2023-03-14T15:34:37;10.80;99.90
35559;DHT22;21661;50.794;-1.066;2023-03-14T15:37:03;10.80;99.90
35559;DHT22;21661;50.794;-1.066;2023-03-14T15:39:33;10.80;99.90
35559;DHT22;21661;50.794;-1.066;2023-03-14T15:41:59;10.80;99.90
35559;DHT22;21661;50.794;-1.066;2023-03-14T15:44:24;10.90;99.90
35559;DHT22;21661;50.794;-1.066;2023-03-14T15:46:50;10.80;99.90
35559;DHT22;21661;50.794;-1.066;2023-03-14T15:49:15;10.90;99.90
35559;DHT22;21661;50.794;-1.066;2023-03-14T15:51:41;10.90;99.90
35559;DHT22;21661;50.794;-1.066;2023-03-14T15:54:07;10.90;99.90
35559;DHT22;21661;50.794;-1.066;2023-03-14T15:56:32;10.90;99.90
35559;DHT22;21661;50.794;-1.066;2023-03-14T15:58:58;10.90;99.90
35559;DHT22;21661;50.794;-1.066;2023-03-14T16:01:23;10.80;99.90
35559;DHT22;21661;50.794;-1.066;2023-03-14T16:03:49;10.80;99.90
35559;DHT22;21661;50.794;-1.066;2023-03-14T16:06:18;10.70;99.90
35559;DHT22;21661;50.794;-1.066;2023-03-14T16:08:45;10.70;99.90
35559;DHT22;21661;50.794;-1.066;2023-03-14T16:11:11;10.70;99.90
35559;DHT22;21661;50.794;-1.066;2023-03-14T16:13:38;10.70;99.90
35559;DHT22;21661;50.794;-1.066;2023-03-14T16:16:04;10.80;99.90
35559;DHT22;21661;50.794;-1.066;2023-03-14T16:18:36;10.80;99.90
35559;DHT22;21661;50.794;-1.066;2023-03-14T16:21:05;10.70;99.90
35559;DHT22;21661;50.794;-1.066;2023-03-14T16:23:33;10.70;99.90
35559;DHT22;21661;50.794;-1.066;2023-03-14T16:25:59;10.70;99.90
35559;DHT22;21661;50.794;-1.066;2023-03-14T16:28:27;10.70;99.90
35559;DHT22;21661;50.794;-1.066;2023-03-14T16:30:59;10.70;99.90
35559;DHT22;21661;50.794;-1.066;2023-03-14T16:33:25;10.60;99.90
35559;DHT22;21661;50.794;-1.066;2023-03-14T16:35:56;10.60;99.90
35559;DHT22;21661;50.794;-1.066;2023-03-14T16:38:23;10.50;99.90
35559;DHT22;21661;50.794;-1.066;2023-03-14T16:43:58;10.50;99.90
35559;DHT22;21661;50.794;-1.066;2023-03-14T16:46:23;10.60;99.90
35559;DHT22;21661;50.794;-1.066;2023-03-14T16:48:51;10.60;99.90
35559;DHT22;21661;50.794;-1.066;2023-03-14T16:51:17;10.60;99.90
35559;DHT22;21661;50.794;-1.066;2023-03-14T16:53:44;10.60;99.90